Terminal Aerodrome Forecast
Issued by NWS

Home | Current Version | Previous Version | Text Only | Print | Product List | Glossary On
Versions: 1 2 3 4 5 6 7 8 9 10 11 12 13 14 15 16 17
000
FTUS45 KBOU 210455 AAA
TAFBJC
TAF AMD
KBJC 210455Z 2105/2124 27014KT P6SM FEW080 SCT220
     FM210800 26007KT P6SM FEW100 SCT220
     FM211200 VRB05KT P6SM SCT220
     FM211900 03006KT P6SM FEW100 BKN200=

USA.gov is the U.S. government's official web portal to all federal, state and local government web resources and services.